VTPH/HHQ METAR and TAF weather

Enter ICAO airport designator
Station Type Date Time Source
VTPH METAR 2022/06/30 11:00 UTC NOAA

VTPH 301100Z 26004KT 200V300 9999 SCT040 32/22 Q1001 NOSIG


Station Type Date Time Source
VTPH Decoded METAR 2022/06/30 11:00 UTC NOAA

Hua Hin, Thailand (VTPH) 12-35N 099-57E 6M
Jun 30, 2022 - 07:00 AM EDT / 2022.06.30 1100 UTC
Wind: from the W (260 degrees) at 5 MPH (4 KT) (direction variable):0
Visibility: greater than 7 mile(s):0
Sky conditions: partly cloudy
Temperature: 89 F (32 C)
Heat index: 95.0 F (35.0 C):1
Dew Point: 71 F (22 C)
Relative Humidity: 55%
Pressure (altimeter): 29.56 in. Hg (1001 hPa)
ob: VTPH 301100Z 26004KT 200V300 9999 SCT040 32/22 Q1001 NOSIG
cycle: 11

Station Type Date Time Source
VTPH TAF 2022/06/30 12:00 UTC NOAA

TAF VTPH 301100Z 3012/0112 24005KT 9999 FEW020

Example: see airport list